sensor_id;sensor_type;location;lat;lon;timestamp;P1;durP1;ratioP1;P2;durP2;ratioP2
70543;SDS011;58097;48.364;-1.224;2022-10-16T00:01:06;1.67;;;1.27;;
70543;SDS011;58097;48.364;-1.224;2022-10-16T00:03:34;4.50;;;1.27;;
70543;SDS011;58097;48.364;-1.224;2022-10-16T00:06:00;1.73;;;1.30;;
70543;SDS011;58097;48.364;-1.224;2022-10-16T00:08:26;3.10;;;1.80;;
70543;SDS011;58097;48.364;-1.224;2022-10-16T00:10:52;8.40;;;1.90;;
70543;SDS011;58097;48.364;-1.224;2022-10-16T00:13:17;5.10;;;1.65;;
70543;SDS011;58097;48.364;-1.224;2022-10-16T00:15:44;2.78;;;1.48;;
70543;SDS011;58097;48.364;-1.224;2022-10-16T00:18:11;5.90;;;1.48;;
70543;SDS011;58097;48.364;-1.224;2022-10-16T00:20:36;2.95;;;1.63;;
70543;SDS011;58097;48.364;-1.224;2022-10-16T00:23:03;3.95;;;1.50;;
70543;SDS011;58097;48.364;-1.224;2022-10-16T00:25:30;2.15;;;1.35;;
70543;SDS011;58097;48.364;-1.224;2022-10-16T00:27:57;4.32;;;1.67;;
70543;SDS011;58097;48.364;-1.224;2022-10-16T00:30:23;7.13;;;2.53;;
70543;SDS011;58097;48.364;-1.224;2022-10-16T00:32:48;7.60;;;1.98;;
70543;SDS011;58097;48.364;-1.224;2022-10-16T00:35:14;5.85;;;2.67;;
70543;SDS011;58097;48.364;-1.224;2022-10-16T00:37:39;4.30;;;1.90;;
70543;SDS011;58097;48.364;-1.224;2022-10-16T00:40:04;2.88;;;2.38;;
70543;SDS011;58097;48.364;-1.224;2022-10-16T00:42:30;4.43;;;2.40;;
70543;SDS011;58097;48.364;-1.224;2022-10-16T00:44:56;7.88;;;2.17;;
70543;SDS011;58097;48.364;-1.224;2022-10-16T00:47:29;7.75;;;2.42;;
70543;SDS011;58097;48.364;-1.224;2022-10-16T00:50:31;2.42;;;2.20;;
70543;SDS011;58097;48.364;-1.224;2022-10-16T00:52:52;5.05;;;2.92;;
70543;SDS011;58097;48.364;-1.224;2022-10-16T00:55:18;3.47;;;2.50;;
70543;SDS011;58097;48.364;-1.224;2022-10-16T00:57:44;6.30;;;3.13;;
70543;SDS011;58097;48.364;-1.224;2022-10-16T01:00:11;2.78;;;2.50;;
70543;SDS011;58097;48.364;-1.224;2022-10-16T01:02:40;4.93;;;3.13;;
70543;SDS011;58097;48.364;-1.224;2022-10-16T01:05:06;9.60;;;2.65;;
70543;SDS011;58097;48.364;-1.224;2022-10-16T01:07:38;5.57;;;2.65;;
70543;SDS011;58097;48.364;-1.224;2022-10-16T01:10:34;6.78;;;3.33;;
70543;SDS011;58097;48.364;-1.224;2022-10-16T01:13:16;10.43;;;2.85;;
70543;SDS011;58097;48.364;-1.224;2022-10-16T01:15:51;5.72;;;3.45;;
70543;SDS011;58097;48.364;-1.224;2022-10-16T01:18:39;10.65;;;3.33;;
70543;SDS011;58097;48.364;-1.224;2022-10-16T01:21:16;8.45;;;3.33;;
70543;SDS011;58097;48.364;-1.224;2022-10-16T01:23:56;4.47;;;3.15;;
70543;SDS011;58097;48.364;-1.224;2022-10-16T01:27:07;6.82;;;3.20;;
70543;SDS011;58097;48.364;-1.224;2022-10-16T01:34:59;3.15;;;2.85;;
70543;SDS011;58097;48.364;-1.224;2022-10-16T01:40:19;6.40;;;2.92;;
70543;SDS011;58097;48.364;-1.224;2022-10-16T01:42:47;7.78;;;3.72;;
70543;SDS011;58097;48.364;-1.224;2022-10-16T01:45:17;9.80;;;4.07;;
70543;SDS011;58097;48.364;-1.224;2022-10-16T01:47:45;6.85;;;3.33;;
70543;SDS011;58097;48.364;-1.224;2022-10-16T01:50:13;6.75;;;2.90;;
70543;SDS011;58097;48.364;-1.224;2022-10-16T01:52:42;6.63;;;3.05;;
70543;SDS011;58097;48.364;-1.224;2022-10-16T01:55:12;4.57;;;2.95;;
70543;SDS011;58097;48.364;-1.224;2022-10-16T01:57:50;9.30;;;3.88;;
70543;SDS011;58097;48.364;-1.224;2022-10-16T02:00:19;4.50;;;2.85;;
70543;SDS011;58097;48.364;-1.224;2022-10-16T02:02:48;8.68;;;3.55;;
70543;SDS011;58097;48.364;-1.224;2022-10-16T02:05:24;7.63;;;3.63;;
70543;SDS011;58097;48.364;-1.224;2022-10-16T02:07:53;7.60;;;3.47;;
70543;SDS011;58097;48.364;-1.224;2022-10-16T02:10:19;3.72;;;3.30;;
70543;SDS011;58097;48.364;-1.224;2022-10-16T02:12:47;8.55;;;3.83;;
70543;SDS011;58097;48.364;-1.224;2022-10-16T02:15:27;6.53;;;3.78;;
70543;SDS011;58097;48.364;-1.224;2022-10-16T02:17:52;6.82;;;3.50;;
70543;SDS011;58097;48.364;-1.224;2022-10-16T02:20:18;8.80;;;3.65;;
70543;SDS011;58097;48.364;-1.224;2022-10-16T02:22:50;8.23;;;4.28;;
70543;SDS011;58097;48.364;-1.224;2022-10-16T02:25:39;8.75;;;3.05;;
70543;SDS011;58097;48.364;-1.224;2022-10-16T02:30:54;13.90;;;4.55;;
70543;SDS011;58097;48.364;-1.224;2022-10-16T02:35:50;4.25;;;3.40;;
70543;SDS011;58097;48.364;-1.224;2022-10-16T02:38:16;11.57;;;3.75;;
70543;SDS011;58097;48.364;-1.224;2022-10-16T02:40:43;7.93;;;3.60;;
70543;SDS011;58097;48.364;-1.224;2022-10-16T02:43:09;6.65;;;3.20;;
70543;SDS011;58097;48.364;-1.224;2022-10-16T02:45:35;6.43;;;3.45;;
70543;SDS011;58097;48.364;-1.224;2022-10-16T02:48:01;7.50;;;4.03;;
70543;SDS011;58097;48.364;-1.224;2022-10-16T02:50:26;5.82;;;3.70;;
70543;SDS011;58097;48.364;-1.224;2022-10-16T02:52:52;9.88;;;3.83;;
70543;SDS011;58097;48.364;-1.224;2022-10-16T02:55:17;13.80;;;4.00;;
70543;SDS011;58097;48.364;-1.224;2022-10-16T02:57:43;5.78;;;3.05;;
70543;SDS011;58097;48.364;-1.224;2022-10-16T03:00:12;11.52;;;3.25;;
70543;SDS011;58097;48.364;-1.224;2022-10-16T03:02:39;4.43;;;3.58;;
70543;SDS011;58097;48.364;-1.224;2022-10-16T03:05:04;10.88;;;3.70;;
70543;SDS011;58097;48.364;-1.224;2022-10-16T03:07:30;10.27;;;3.63;;
70543;SDS011;58097;48.364;-1.224;2022-10-16T03:09:55;10.63;;;3.75;;
70543;SDS011;58097;48.364;-1.224;2022-10-16T03:12:21;8.38;;;3.33;;
70543;SDS011;58097;48.364;-1.224;2022-10-16T03:14:47;8.35;;;3.80;;
70543;SDS011;58097;48.364;-1.224;2022-10-16T03:17:12;6.47;;;3.60;;
70543;SDS011;58097;48.364;-1.224;2022-10-16T03:19:38;8.02;;;3.38;;
70543;SDS011;58097;48.364;-1.224;2022-10-16T03:22:03;8.57;;;3.13;;
70543;SDS011;58097;48.364;-1.224;2022-10-16T03:24:29;5.75;;;3.35;;
70543;SDS011;58097;48.364;-1.224;2022-10-16T03:26:54;9.52;;;3.13;;
70543;SDS011;58097;48.364;-1.224;2022-10-16T03:29:20;9.02;;;3.65;;
70543;SDS011;58097;48.364;-1.224;2022-10-16T03:31:45;6.88;;;3.65;;
70543;SDS011;58097;48.364;-1.224;2022-10-16T03:34:10;8.85;;;3.58;;
70543;SDS011;58097;48.364;-1.224;2022-10-16T03:36:36;8.57;;;3.08;;
70543;SDS011;58097;48.364;-1.224;2022-10-16T03:39:01;5.28;;;3.10;;
70543;SDS011;58097;48.364;-1.224;2022-10-16T03:41:27;6.32;;;4.03;;
70543;SDS011;58097;48.364;-1.224;2022-10-16T03:43:52;7.40;;;2.97;;
70543;SDS011;58097;48.364;-1.224;2022-10-16T03:46:18;8.80;;;3.65;;
70543;SDS011;58097;48.364;-1.224;2022-10-16T03:48:43;8.20;;;3.20;;
70543;SDS011;58097;48.364;-1.224;2022-10-16T03:51:08;6.40;;;3.30;;
70543;SDS011;58097;48.364;-1.224;2022-10-16T03:53:34;8.50;;;3.40;;
70543;SDS011;58097;48.364;-1.224;2022-10-16T03:55:59;5.97;;;3.08;;
70543;SDS011;58097;48.364;-1.224;2022-10-16T03:58:25;9.55;;;4.07;;
70543;SDS011;58097;48.364;-1.224;2022-10-16T04:00:50;9.30;;;3.80;;
70543;SDS011;58097;48.364;-1.224;2022-10-16T04:03:15;7.38;;;3.58;;
70543;SDS011;58097;48.364;-1.224;2022-10-16T04:05:42;10.65;;;4.18;;
70543;SDS011;58097;48.364;-1.224;2022-10-16T04:08:07;14.73;;;4.35;;
70543;SDS011;58097;48.364;-1.224;2022-10-16T04:10:32;6.07;;;3.13;;
70543;SDS011;58097;48.364;-1.224;2022-10-16T04:12:58;8.55;;;3.92;;
70543;SDS011;58097;48.364;-1.224;2022-10-16T04:15:23;7.25;;;4.28;;
70543;SDS011;58097;48.364;-1.224;2022-10-16T04:17:49;8.98;;;4.28;;
70543;SDS011;58097;48.364;-1.224;2022-10-16T04:20:15;5.35;;;3.38;;
70543;SDS011;58097;48.364;-1.224;2022-10-16T04:22:40;10.38;;;3.95;;
70543;SDS011;58097;48.364;-1.224;2022-10-16T04:25:06;7.68;;;4.55;;
70543;SDS011;58097;48.364;-1.224;2022-10-16T04:27:32;9.50;;;4.28;;
70543;SDS011;58097;48.364;-1.224;2022-10-16T04:30:00;11.40;;;4.50;;
70543;SDS011;58097;48.364;-1.224;2022-10-16T04:32:26;10.00;;;4.07;;
70543;SDS011;58097;48.364;-1.224;2022-10-16T04:34:52;8.75;;;4.07;;
70543;SDS011;58097;48.364;-1.224;2022-10-16T04:37:18;9.35;;;4.43;;
70543;SDS011;58097;48.364;-1.224;2022-10-16T04:39:43;8.10;;;4.18;;
70543;SDS011;58097;48.364;-1.224;2022-10-16T04:42:09;11.20;;;4.05;;
70543;SDS011;58097;48.364;-1.224;2022-10-16T04:44:35;5.97;;;3.60;;
70543;SDS011;58097;48.364;-1.224;2022-10-16T04:47:00;7.95;;;3.58;;
70543;SDS011;58097;48.364;-1.224;2022-10-16T04:49:26;8.25;;;3.70;;
70543;SDS011;58097;48.364;-1.224;2022-10-16T04:51:51;10.50;;;4.43;;
70543;SDS011;58097;48.364;-1.224;2022-10-16T04:54:16;9.65;;;4.13;;
70543;SDS011;58097;48.364;-1.224;2022-10-16T04:56:42;6.97;;;3.42;;
70543;SDS011;58097;48.364;-1.224;2022-10-16T04:59:12;8.93;;;3.83;;
70543;SDS011;58097;48.364;-1.224;2022-10-16T05:01:40;9.77;;;4.25;;
70543;SDS011;58097;48.364;-1.224;2022-10-16T05:04:06;11.60;;;3.90;;
70543;SDS011;58097;48.364;-1.224;2022-10-16T05:06:31;8.73;;;3.78;;
70543;SDS011;58097;48.364;-1.224;2022-10-16T05:08:57;8.25;;;4.20;;
70543;SDS011;58097;48.364;-1.224;2022-10-16T05:11:22;7.65;;;4.32;;
70543;SDS011;58097;48.364;-1.224;2022-10-16T05:13:47;8.30;;;3.65;;
70543;SDS011;58097;48.364;-1.224;2022-10-16T05:16:13;11.10;;;3.83;;
70543;SDS011;58097;48.364;-1.224;2022-10-16T05:18:38;11.85;;;4.10;;
70543;SDS011;58097;48.364;-1.224;2022-10-16T05:21:04;7.15;;;3.80;;
70543;SDS011;58097;48.364;-1.224;2022-10-16T05:23:30;6.50;;;4.03;;
70543;SDS011;58097;48.364;-1.224;2022-10-16T05:25:56;13.85;;;3.97;;
70543;SDS011;58097;48.364;-1.224;2022-10-16T05:28:26;13.02;;;5.00;;
70543;SDS011;58097;48.364;-1.224;2022-10-16T05:30:53;7.88;;;3.75;;
70543;SDS011;58097;48.364;-1.224;2022-10-16T05:33:19;16.08;;;4.40;;
70543;SDS011;58097;48.364;-1.224;2022-10-16T05:35:45;9.07;;;3.53;;
70543;SDS011;58097;48.364;-1.224;2022-10-16T05:38:11;7.55;;;4.53;;
70543;SDS011;58097;48.364;-1.224;2022-10-16T05:40:36;9.05;;;3.95;;
70543;SDS011;58097;48.364;-1.224;2022-10-16T05:43:02;11.70;;;4.10;;
70543;SDS011;58097;48.364;-1.224;2022-10-16T05:45:27;21.02;;;4.45;;
70543;SDS011;58097;48.364;-1.224;2022-10-16T05:47:53;8.93;;;3.90;;
70543;SDS011;58097;48.364;-1.224;2022-10-16T05:50:18;7.78;;;5.07;;
70543;SDS011;58097;48.364;-1.224;2022-10-16T05:52:43;9.77;;;3.90;;
70543;SDS011;58097;48.364;-1.224;2022-10-16T05:55:09;9.35;;;4.45;;
70543;SDS011;58097;48.364;-1.224;2022-10-16T05:57:34;7.10;;;3.88;;
70543;SDS011;58097;48.364;-1.224;2022-10-16T05:59:59;9.90;;;3.42;;
70543;SDS011;58097;48.364;-1.224;2022-10-16T06:02:24;6.38;;;3.90;;
70543;SDS011;58097;48.364;-1.224;2022-10-16T06:04:53;13.82;;;3.90;;
70543;SDS011;58097;48.364;-1.224;2022-10-16T06:07:19;11.02;;;4.45;;
70543;SDS011;58097;48.364;-1.224;2022-10-16T06:09:47;13.30;;;5.25;;
70543;SDS011;58097;48.364;-1.224;2022-10-16T06:12:16;13.88;;;4.55;;
70543;SDS011;58097;48.364;-1.224;2022-10-16T06:14:42;11.15;;;4.45;;
70543;SDS011;58097;48.364;-1.224;2022-10-16T06:17:07;8.73;;;3.53;;
70543;SDS011;58097;48.364;-1.224;2022-10-16T06:19:32;9.48;;;4.20;;
70543;SDS011;58097;48.364;-1.224;2022-10-16T06:21:58;10.75;;;4.25;;
70543;SDS011;58097;48.364;-1.224;2022-10-16T06:24:23;11.40;;;3.78;;
70543;SDS011;58097;48.364;-1.224;2022-10-16T06:26:49;6.03;;;3.80;;
70543;SDS011;58097;48.364;-1.224;2022-10-16T06:29:15;5.47;;;3.60;;
70543;SDS011;58097;48.364;-1.224;2022-10-16T06:31:40;7.85;;;3.45;;
70543;SDS011;58097;48.364;-1.224;2022-10-16T06:34:05;11.25;;;4.10;;
70543;SDS011;58097;48.364;-1.224;2022-10-16T06:36:34;11.43;;;4.72;;
70543;SDS011;58097;48.364;-1.224;2022-10-16T06:39:00;11.77;;;5.13;;
70543;SDS011;58097;48.364;-1.224;2022-10-16T06:41:25;8.23;;;3.85;;
70543;SDS011;58097;48.364;-1.224;2022-10-16T06:43:51;11.35;;;4.30;;
70543;SDS011;58097;48.364;-1.224;2022-10-16T06:46:18;8.80;;;4.55;;
70543;SDS011;58097;48.364;-1.224;2022-10-16T06:48:46;11.15;;;5.00;;
70543;SDS011;58097;48.364;-1.224;2022-10-16T06:51:13;14.18;;;4.65;;
70543;SDS011;58097;48.364;-1.224;2022-10-16T06:53:44;5.45;;;3.92;;
70543;SDS011;58097;48.364;-1.224;2022-10-16T06:56:14;10.45;;;4.47;;
70543;SDS011;58097;48.364;-1.224;2022-10-16T06:58:45;9.82;;;5.07;;
70543;SDS011;58097;48.364;-1.224;2022-10-16T07:01:11;12.90;;;5.53;;
70543;SDS011;58097;48.364;-1.224;2022-10-16T07:03:37;17.92;;;5.47;;
70543;SDS011;58097;48.364;-1.224;2022-10-16T07:06:04;10.98;;;5.60;;
70543;SDS011;58097;48.364;-1.224;2022-10-16T07:08:32;16.45;;;6.20;;
70543;SDS011;58097;48.364;-1.224;2022-10-16T07:11:02;9.10;;;5.63;;
70543;SDS011;58097;48.364;-1.224;2022-10-16T07:13:29;9.67;;;5.50;;
70543;SDS011;58097;48.364;-1.224;2022-10-16T07:15:55;12.30;;;6.00;;
70543;SDS011;58097;48.364;-1.224;2022-10-16T07:18:20;13.65;;;5.85;;
70543;SDS011;58097;48.364;-1.224;2022-10-16T07:20:46;11.65;;;5.88;;
70543;SDS011;58097;48.364;-1.224;2022-10-16T07:23:12;14.23;;;5.75;;
70543;SDS011;58097;48.364;-1.224;2022-10-16T07:25:37;12.23;;;5.60;;
70543;SDS011;58097;48.364;-1.224;2022-10-16T07:28:02;14.05;;;6.38;;
70543;SDS011;58097;48.364;-1.224;2022-10-16T07:30:28;16.52;;;5.45;;
70543;SDS011;58097;48.364;-1.224;2022-10-16T07:32:53;7.28;;;4.78;;
70543;SDS011;58097;48.364;-1.224;2022-10-16T07:35:18;19.25;;;7.18;;
70543;SDS011;58097;48.364;-1.224;2022-10-16T07:37:45;9.00;;;5.50;;
70543;SDS011;58097;48.364;-1.224;2022-10-16T07:40:11;13.98;;;6.07;;
70543;SDS011;58097;48.364;-1.224;2022-10-16T07:42:37;15.48;;;6.38;;
70543;SDS011;58097;48.364;-1.224;2022-10-16T07:45:02;12.13;;;6.68;;
70543;SDS011;58097;48.364;-1.224;2022-10-16T07:47:28;18.52;;;6.55;;
70543;SDS011;58097;48.364;-1.224;2022-10-16T07:49:53;12.68;;;6.75;;
70543;SDS011;58097;48.364;-1.224;2022-10-16T07:52:19;11.52;;;6.65;;
70543;SDS011;58097;48.364;-1.224;2022-10-16T07:54:44;13.38;;;7.07;;
70543;SDS011;58097;48.364;-1.224;2022-10-16T07:57:10;10.00;;;5.85;;
70543;SDS011;58097;48.364;-1.224;2022-10-16T07:59:35;19.60;;;7.63;;
70543;SDS011;58097;48.364;-1.224;2022-10-16T08:02:00;15.40;;;5.90;;
70543;SDS011;58097;48.364;-1.224;2022-10-16T08:04:26;13.00;;;6.60;;
70543;SDS011;58097;48.364;-1.224;2022-10-16T08:06:51;19.95;;;7.53;;
70543;SDS011;58097;48.364;-1.224;2022-10-16T08:09:17;20.13;;;8.45;;
70543;SDS011;58097;48.364;-1.224;2022-10-16T08:11:42;16.02;;;6.75;;
70543;SDS011;58097;48.364;-1.224;2022-10-16T08:14:07;10.50;;;5.55;;
70543;SDS011;58097;48.364;-1.224;2022-10-16T08:16:33;12.88;;;6.75;;
70543;SDS011;58097;48.364;-1.224;2022-10-16T08:18:58;15.25;;;6.43;;
70543;SDS011;58097;48.364;-1.224;2022-10-16T08:21:23;11.45;;;5.80;;
70543;SDS011;58097;48.364;-1.224;2022-10-16T08:23:49;17.45;;;6.30;;
70543;SDS011;58097;48.364;-1.224;2022-10-16T08:26:15;10.32;;;5.38;;
70543;SDS011;58097;48.364;-1.224;2022-10-16T08:28:40;9.88;;;5.45;;
70543;SDS011;58097;48.364;-1.224;2022-10-16T08:31:10;9.10;;;5.68;;
70543;SDS011;58097;48.364;-1.224;2022-10-16T08:33:37;10.65;;;5.20;;
70543;SDS011;58097;48.364;-1.224;2022-10-16T08:36:04;8.85;;;5.22;;
70543;SDS011;58097;48.364;-1.224;2022-10-16T08:38:30;9.35;;;4.90;;
70543;SDS011;58097;48.364;-1.224;2022-10-16T08:41:20;7.72;;;4.82;;
70543;SDS011;58097;48.364;-1.224;2022-10-16T08:44:19;14.43;;;6.03;;
70543;SDS011;58097;48.364;-1.224;2022-10-16T08:47:17;8.32;;;4.60;;
70543;SDS011;58097;48.364;-1.224;2022-10-16T08:49:59;6.68;;;4.10;;
70543;SDS011;58097;48.364;-1.224;2022-10-16T08:52:33;6.65;;;4.20;;
70543;SDS011;58097;48.364;-1.224;2022-10-16T08:55:01;8.25;;;4.45;;
70543;SDS011;58097;48.364;-1.224;2022-10-16T08:57:27;4.95;;;3.60;;
70543;SDS011;58097;48.364;-1.224;2022-10-16T08:59:52;9.20;;;3.75;;
70543;SDS011;58097;48.364;-1.224;2022-10-16T09:12:51;9.20;;;4.20;;
70543;SDS011;58097;48.364;-1.224;2022-10-16T09:15:32;11.45;;;4.97;;
70543;SDS011;58097;48.364;-1.224;2022-10-16T09:18:11;10.98;;;3.92;;
70543;SDS011;58097;48.364;-1.224;2022-10-16T09:20:53;10.88;;;4.00;;
70543;SDS011;58097;48.364;-1.224;2022-10-16T09:23:27;6.97;;;3.38;;
70543;SDS011;58097;48.364;-1.224;2022-10-16T09:25:55;8.70;;;3.60;;
70543;SDS011;58097;48.364;-1.224;2022-10-16T09:28:22;8.30;;;3.67;;
70543;SDS011;58097;48.364;-1.224;2022-10-16T09:30:48;9.60;;;3.55;;
70543;SDS011;58097;48.364;-1.224;2022-10-16T09:33:14;7.80;;;3.50;;
70543;SDS011;58097;48.364;-1.224;2022-10-16T09:35:42;8.63;;;3.20;;
70543;SDS011;58097;48.364;-1.224;2022-10-16T09:38:20;9.68;;;3.88;;
70543;SDS011;58097;48.364;-1.224;2022-10-16T09:40:58;5.60;;;2.80;;
70543;SDS011;58097;48.364;-1.224;2022-10-16T09:43:36;6.72;;;3.40;;
70543;SDS011;58097;48.364;-1.224;2022-10-16T09:46:05;9.27;;;3.63;;
70543;SDS011;58097;48.364;-1.224;2022-10-16T09:48:44;8.63;;;4.78;;
70543;SDS011;58097;48.364;-1.224;2022-10-16T09:51:17;21.77;;;4.85;;
70543;SDS011;58097;48.364;-1.224;2022-10-16T09:53:46;9.65;;;4.05;;
70543;SDS011;58097;48.364;-1.224;2022-10-16T09:56:21;14.45;;;3.88;;
70543;SDS011;58097;48.364;-1.224;2022-10-16T09:58:55;6.75;;;3.03;;
70543;SDS011;58097;48.364;-1.224;2022-10-16T10:01:25;5.38;;;2.78;;
70543;SDS011;58097;48.364;-1.224;2022-10-16T10:03:55;4.45;;;2.17;;
70543;SDS011;58097;48.364;-1.224;2022-10-16T10:06:27;6.93;;;2.23;;
70543;SDS011;58097;48.364;-1.224;2022-10-16T10:08:59;2.30;;;1.38;;
70543;SDS011;58097;48.364;-1.224;2022-10-16T10:14:18;4.03;;;1.30;;
70543;SDS011;58097;48.364;-1.224;2022-10-16T10:16:47;2.45;;;1.27;;
70543;SDS011;58097;48.364;-1.224;2022-10-16T10:19:16;1.20;;;1.10;;
70543;SDS011;58097;48.364;-1.224;2022-10-16T10:21:43;6.20;;;1.90;;
70543;SDS011;58097;48.364;-1.224;2022-10-16T10:24:10;8.05;;;2.47;;
70543;SDS011;58097;48.364;-1.224;2022-10-16T10:26:36;7.35;;;3.20;;
70543;SDS011;58097;48.364;-1.224;2022-10-16T10:29:09;9.50;;;3.40;;
70543;SDS011;58097;48.364;-1.224;2022-10-16T10:31:51;10.73;;;3.30;;
70543;SDS011;58097;48.364;-1.224;2022-10-16T10:37:27;5.53;;;3.22;;
70543;SDS011;58097;48.364;-1.224;2022-10-16T10:45:17;5.70;;;3.22;;
70543;SDS011;58097;48.364;-1.224;2022-10-16T10:56:09;5.63;;;2.67;;
70543;SDS011;58097;48.364;-1.224;2022-10-16T11:09:12;3.78;;;2.22;;
70543;SDS011;58097;48.364;-1.224;2022-10-16T11:14:28;3.03;;;1.95;;
70543;SDS011;58097;48.364;-1.224;2022-10-16T11:17:01;3.58;;;1.45;;
70543;SDS011;58097;48.364;-1.224;2022-10-16T11:19:47;3.97;;;1.50;;
70543;SDS011;58097;48.364;-1.224;2022-10-16T11:22:23;2.00;;;1.48;;
70543;SDS011;58097;48.364;-1.224;2022-10-16T11:28:01;2.67;;;1.77;;
70543;SDS011;58097;48.364;-1.224;2022-10-16T11:30:31;2.88;;;1.58;;
70543;SDS011;58097;48.364;-1.224;2022-10-16T11:35:39;2.80;;;1.88;;
70543;SDS011;58097;48.364;-1.224;2022-10-16T11:38:29;7.00;;;1.60;;
70543;SDS011;58097;48.364;-1.224;2022-10-16T11:41:04;5.50;;;1.35;;
70543;SDS011;58097;48.364;-1.224;2022-10-16T11:44:11;2.40;;;1.80;;
70543;SDS011;58097;48.364;-1.224;2022-10-16T11:46:50;9.35;;;1.90;;
70543;SDS011;58097;48.364;-1.224;2022-10-16T11:49:26;5.45;;;1.48;;
70543;SDS011;58097;48.364;-1.224;2022-10-16T11:51:59;3.72;;;1.30;;
70543;SDS011;58097;48.364;-1.224;2022-10-16T11:54:35;6.20;;;1.60;;
70543;SDS011;58097;48.364;-1.224;2022-10-16T11:57:12;5.18;;;1.73;;
70543;SDS011;58097;48.364;-1.224;2022-10-16T11:59:44;2.60;;;1.30;;
70543;SDS011;58097;48.364;-1.224;2022-10-16T12:07:49;2.13;;;1.17;;
70543;SDS011;58097;48.364;-1.224;2022-10-16T12:10:22;2.42;;;1.52;;
70543;SDS011;58097;48.364;-1.224;2022-10-16T12:12:49;2.08;;;1.35;;
70543;SDS011;58097;48.364;-1.224;2022-10-16T12:17:51;2.58;;;1.83;;
70543;SDS011;58097;48.364;-1.224;2022-10-16T12:25:20;5.25;;;2.05;;
70543;SDS011;58097;48.364;-1.224;2022-10-16T12:27:59;7.35;;;2.55;;
70543;SDS011;58097;48.364;-1.224;2022-10-16T12:30:27;5.00;;;1.98;;
70543;SDS011;58097;48.364;-1.224;2022-10-16T12:32:56;3.60;;;2.40;;
70543;SDS011;58097;48.364;-1.224;2022-10-16T12:35:24;4.72;;;2.22;;
70543;SDS011;58097;48.364;-1.224;2022-10-16T12:37:52;7.07;;;2.78;;
70543;SDS011;58097;48.364;-1.224;2022-10-16T12:42:55;5.30;;;2.65;;
70543;SDS011;58097;48.364;-1.224;2022-10-16T12:45:31;4.70;;;2.30;;
70543;SDS011;58097;48.364;-1.224;2022-10-16T12:47:59;3.20;;;2.38;;
70543;SDS011;58097;48.364;-1.224;2022-10-16T12:52:55;6.10;;;2.28;;
70543;SDS011;58097;48.364;-1.224;2022-10-16T12:55:21;4.63;;;2.10;;
70543;SDS011;58097;48.364;-1.224;2022-10-16T13:00:26;5.00;;;2.47;;
70543;SDS011;58097;48.364;-1.224;2022-10-16T13:06:02;5.60;;;2.28;;
70543;SDS011;58097;48.364;-1.224;2022-10-16T13:17:30;4.57;;;2.05;;
70543;SDS011;58097;48.364;-1.224;2022-10-16T13:22:39;4.13;;;1.75;;
70543;SDS011;58097;48.364;-1.224;2022-10-16T13:27:50;5.57;;;2.25;;
70543;SDS011;58097;48.364;-1.224;2022-10-16T13:30:27;6.30;;;1.50;;
70543;SDS011;58097;48.364;-1.224;2022-10-16T13:33:04;2.08;;;1.40;;
70543;SDS011;58097;48.364;-1.224;2022-10-16T13:35:33;2.53;;;1.73;;
70543;SDS011;58097;48.364;-1.224;2022-10-16T13:38:19;5.60;;;1.80;;
70543;SDS011;58097;48.364;-1.224;2022-10-16T13:40:55;4.00;;;1.88;;
70543;SDS011;58097;48.364;-1.224;2022-10-16T13:43:25;1.98;;;1.55;;
70543;SDS011;58097;48.364;-1.224;2022-10-16T13:45:57;4.28;;;1.85;;
70543;SDS011;58097;48.364;-1.224;2022-10-16T13:48:26;3.63;;;1.70;;
70543;SDS011;58097;48.364;-1.224;2022-10-16T13:51:02;5.18;;;1.73;;
70543;SDS011;58097;48.364;-1.224;2022-10-16T13:53:36;3.53;;;1.95;;
70543;SDS011;58097;48.364;-1.224;2022-10-16T13:56:06;2.53;;;2.10;;
70543;SDS011;58097;48.364;-1.224;2022-10-16T13:58:34;3.75;;;1.73;;
70543;SDS011;58097;48.364;-1.224;2022-10-16T14:01:03;2.75;;;1.95;;
70543;SDS011;58097;48.364;-1.224;2022-10-16T14:03:31;2.85;;;1.50;;
70543;SDS011;58097;48.364;-1.224;2022-10-16T14:06:02;2.28;;;1.88;;
70543;SDS011;58097;48.364;-1.224;2022-10-16T14:08:31;6.13;;;1.90;;
70543;SDS011;58097;48.364;-1.224;2022-10-16T14:10:58;3.95;;;1.50;;
70543;SDS011;58097;48.364;-1.224;2022-10-16T14:13:34;3.72;;;1.63;;
70543;SDS011;58097;48.364;-1.224;2022-10-16T14:16:05;1.45;;;1.30;;
70543;SDS011;58097;48.364;-1.224;2022-10-16T14:18:33;2.70;;;1.52;;
70543;SDS011;58097;48.364;-1.224;2022-10-16T14:21:06;1.98;;;1.38;;
70543;SDS011;58097;48.364;-1.224;2022-10-16T14:23:37;7.63;;;1.80;;
70543;SDS011;58097;48.364;-1.224;2022-10-16T14:26:06;1.95;;;1.75;;
70543;SDS011;58097;48.364;-1.224;2022-10-16T14:28:34;5.45;;;1.88;;
70543;SDS011;58097;48.364;-1.224;2022-10-16T14:31:01;5.22;;;1.83;;
70543;SDS011;58097;48.364;-1.224;2022-10-16T14:33:40;2.75;;;1.77;;
70543;SDS011;58097;48.364;-1.224;2022-10-16T14:36:06;2.03;;;1.80;;
70543;SDS011;58097;48.364;-1.224;2022-10-16T14:38:38;1.83;;;1.38;;
70543;SDS011;58097;48.364;-1.224;2022-10-16T14:41:05;2.45;;;1.80;;
70543;SDS011;58097;48.364;-1.224;2022-10-16T14:43:36;4.53;;;2.13;;
70543;SDS011;58097;48.364;-1.224;2022-10-16T14:46:28;2.97;;;2.30;;
70543;SDS011;58097;48.364;-1.224;2022-10-16T14:48:57;3.40;;;2.45;;
70543;SDS011;58097;48.364;-1.224;2022-10-16T14:51:30;2.72;;;2.22;;
70543;SDS011;58097;48.364;-1.224;2022-10-16T14:53:55;2.40;;;1.88;;
70543;SDS011;58097;48.364;-1.224;2022-10-16T14:56:22;2.15;;;1.85;;
70543;SDS011;58097;48.364;-1.224;2022-10-16T14:58:50;3.35;;;1.88;;
70543;SDS011;58097;48.364;-1.224;2022-10-16T15:01:16;2.78;;;2.33;;
70543;SDS011;58097;48.364;-1.224;2022-10-16T15:03:43;6.13;;;2.85;;
70543;SDS011;58097;48.364;-1.224;2022-10-16T15:06:11;2.92;;;2.13;;
70543;SDS011;58097;48.364;-1.224;2022-10-16T15:08:38;3.88;;;2.65;;
70543;SDS011;58097;48.364;-1.224;2022-10-16T15:11:04;2.45;;;2.25;;
70543;SDS011;58097;48.364;-1.224;2022-10-16T15:13:29;3.65;;;2.60;;
70543;SDS011;58097;48.364;-1.224;2022-10-16T15:15:55;3.97;;;2.90;;
70543;SDS011;58097;48.364;-1.224;2022-10-16T15:18:20;4.60;;;3.15;;
70543;SDS011;58097;48.364;-1.224;2022-10-16T15:20:48;3.67;;;3.28;;
70543;SDS011;58097;48.364;-1.224;2022-10-16T15:23:18;2.83;;;2.50;;
70543;SDS011;58097;48.364;-1.224;2022-10-16T15:25:49;5.70;;;2.42;;
70543;SDS011;58097;48.364;-1.224;2022-10-16T15:28:17;3.35;;;2.10;;
70543;SDS011;58097;48.364;-1.224;2022-10-16T15:30:43;3.03;;;1.90;;
70543;SDS011;58097;48.364;-1.224;2022-10-16T15:33:13;1.80;;;1.70;;
70543;SDS011;58097;48.364;-1.224;2022-10-16T15:35:40;4.20;;;2.00;;
70543;SDS011;58097;48.364;-1.224;2022-10-16T15:38:06;6.10;;;1.45;;
70543;SDS011;58097;48.364;-1.224;2022-10-16T15:40:35;3.10;;;2.30;;
70543;SDS011;58097;48.364;-1.224;2022-10-16T15:43:00;3.72;;;2.03;;
70543;SDS011;58097;48.364;-1.224;2022-10-16T15:45:25;2.17;;;1.70;;
70543;SDS011;58097;48.364;-1.224;2022-10-16T15:47:50;4.75;;;1.70;;
70543;SDS011;58097;48.364;-1.224;2022-10-16T15:50:16;5.28;;;2.05;;
70543;SDS011;58097;48.364;-1.224;2022-10-16T15:52:41;2.63;;;1.77;;
70543;SDS011;58097;48.364;-1.224;2022-10-16T15:55:10;3.92;;;2.25;;
70543;SDS011;58097;48.364;-1.224;2022-10-16T15:57:37;2.42;;;1.60;;
70543;SDS011;58097;48.364;-1.224;2022-10-16T16:00:06;1.83;;;1.60;;
70543;SDS011;58097;48.364;-1.224;2022-10-16T16:02:33;2.00;;;1.48;;
70543;SDS011;58097;48.364;-1.224;2022-10-16T16:04:58;2.50;;;1.27;;
70543;SDS011;58097;48.364;-1.224;2022-10-16T16:07:24;5.65;;;1.33;;
70543;SDS011;58097;48.364;-1.224;2022-10-16T16:09:49;3.45;;;1.45;;
70543;SDS011;58097;48.364;-1.224;2022-10-16T16:12:14;1.55;;;1.40;;
70543;SDS011;58097;48.364;-1.224;2022-10-16T16:14:40;1.73;;;1.35;;
70543;SDS011;58097;48.364;-1.224;2022-10-16T16:17:05;3.60;;;1.30;;
70543;SDS011;58097;48.364;-1.224;2022-10-16T16:19:31;1.50;;;1.00;;
70543;SDS011;58097;48.364;-1.224;2022-10-16T16:21:56;5.32;;;1.77;;